Terminal Aerodrome Forecast
Issued by NWS

Home | Current Version | Previous Version | Text Only | Print | Product List | Glossary On
Versions: 1 2 3 4 5 6 7 8 9 10 11 12 13
000
FTUS46 KPDT 211100
TAFPSC
TAF
KPSC 211120Z 2112/2212 21005KT P6SM SKC
     FM211800 25009KT P6SM SCT100 BKN250
     FM220400 22004KT P6SM SKC=

USA.gov is the U.S. government's official web portal to all federal, state and local government web resources and services.